createdAt,value
2022-08-14T00:00:19.207Z,26.49
2022-08-14T00:03:29.554Z,25.86
2022-08-14T00:06:25.276Z,25.83
2022-08-14T00:08:59.203Z,26.82
2022-08-14T00:11:40.069Z,27.54
2022-08-14T00:14:25.364Z,27.67
2022-08-14T00:36:48.095Z,26.11
2022-08-14T00:39:19.979Z,26.85
2022-08-14T00:41:48.586Z,27.40
2022-08-14T00:44:21.275Z,27.46
2022-08-14T00:47:10.853Z,26.61
2022-08-14T00:49:46.390Z,25.84
2022-08-14T00:52:21.816Z,25.30
2022-08-14T00:54:58.561Z,25.17
2022-08-14T00:57:33.237Z,25.94
2022-08-14T01:00:18.071Z,26.69
2022-08-14T01:03:07.517Z,26.77
2022-08-14T01:05:50.872Z,26.02
2022-08-14T01:08:51.196Z,25.35
2022-08-14T01:11:19.476Z,24.84
2022-08-14T01:13:56.123Z,24.47
2022-08-14T01:16:31.606Z,24.49
2022-08-14T01:19:21.336Z,25.11
2022-08-14T01:21:53.572Z,25.83
2022-08-14T01:24:34.221Z,26.54
2022-08-14T01:27:07.210Z,26.93
2022-08-14T01:30:03.845Z,26.18
2022-08-14T01:32:30.246Z,25.42
2022-08-14T01:35:17.798Z,24.95
2022-08-14T01:45:04.374Z,24.66
2022-08-14T01:45:17.888Z,25.56
2022-08-14T01:48:03.648Z,26.36
2022-08-14T01:50:33.847Z,26.70
2022-08-14T01:53:02.574Z,26.00
2022-08-14T01:55:32.618Z,25.33
2022-08-14T01:58:38.072Z,24.83
2022-08-14T02:01:57.812Z,24.31
2022-08-14T02:04:56.295Z,24.25
2022-08-14T02:07:34.714Z,24.63
2022-08-14T02:10:15.928Z,25.07
2022-08-14T02:12:54.218Z,25.54
2022-08-14T02:15:26.465Z,26.11
2022-08-14T02:17:54.533Z,26.32
2022-08-14T02:20:24.314Z,25.61
2022-08-14T02:22:55.428Z,24.91
2022-08-14T02:25:24.078Z,24.38
2022-08-14T02:28:26.017Z,24.26
2022-08-14T02:30:52.387Z,25.43
2022-08-14T02:33:22.845Z,26.58
2022-08-14T02:35:57.866Z,26.98
2022-08-14T02:38:35.046Z,26.04
2022-08-14T02:41:08.900Z,25.21
2022-08-14T02:43:46.170Z,24.58
2022-08-14T02:46:20.170Z,24.09
2022-08-14T02:49:01.333Z,24.20
2022-08-14T02:51:36.587Z,25.53
2022-08-14T02:54:07.857Z,26.49
2022-08-14T02:57:15.335Z,26.45
2022-08-14T02:59:33.934Z,25.43
2022-08-14T03:02:05.774Z,24.70
2022-08-14T03:04:35.152Z,24.16
2022-08-14T03:07:17.062Z,23.79
2022-08-14T03:10:28.116Z,24.54
2022-08-14T03:12:54.011Z,25.80
2022-08-14T03:15:25.862Z,26.28
2022-08-14T03:17:58.582Z,25.50
2022-08-14T03:20:28.932Z,24.71
2022-08-14T03:23:00.288Z,24.13
2022-08-14T03:25:37.582Z,24.03
2022-08-14T03:28:07.978Z,25.07
2022-08-14T03:30:46.267Z,26.02
2022-08-14T03:33:14.279Z,26.30
2022-08-14T03:36:00.340Z,25.53
2022-08-14T03:39:12.487Z,24.66
2022-08-14T03:41:22.961Z,24.04
2022-08-14T03:44:01.481Z,23.61
2022-08-14T03:47:04.953Z,23.73
2022-08-14T03:49:33.925Z,24.71
2022-08-14T03:52:18.084Z,25.68
2022-08-14T03:54:53.962Z,25.91
2022-08-14T03:57:22.646Z,25.09
2022-08-14T03:59:51.444Z,24.38
2022-08-14T04:02:33.036Z,23.87
2022-08-14T04:05:11.978Z,23.43
2022-08-14T04:07:49.671Z,23.43
2022-08-14T04:10:32.047Z,24.60
2022-08-14T04:13:06.535Z,25.57
2022-08-14T04:15:56.416Z,25.86
2022-08-14T04:18:23.936Z,25.02
2022-08-14T04:20:54.531Z,24.33
2022-08-14T04:23:32.922Z,23.83
2022-08-14T04:26:04.944Z,23.43
2022-08-14T04:29:01.879Z,23.44
2022-08-14T04:32:56.692Z,24.64
2022-08-14T04:34:20.562Z,25.50
2022-08-14T04:37:09.383Z,25.69
2022-08-14T04:39:57.977Z,24.86
2022-08-14T04:42:47.428Z,24.13
2022-08-14T04:45:23.870Z,23.63
2022-08-14T04:48:12.540Z,23.29
2022-08-14T04:50:53.804Z,23.35
2022-08-14T04:53:35.613Z,24.37
2022-08-14T04:56:30.155Z,25.23
2022-08-14T04:59:09.938Z,25.25
2022-08-14T05:01:48.714Z,24.51
2022-08-14T05:04:21.298Z,23.92
2022-08-14T05:06:53.711Z,23.54
2022-08-14T05:09:29.002Z,23.51
2022-08-14T05:13:10.645Z,24.47
2022-08-14T05:14:54.868Z,25.46
2022-08-14T05:17:28.804Z,25.64
2022-08-14T05:21:04.449Z,24.90
2022-08-14T05:22:55.991Z,24.22
2022-08-14T05:25:35.464Z,23.77
2022-08-14T05:28:23.108Z,23.62
2022-08-14T05:30:58.456Z,24.36
2022-08-14T05:33:28.885Z,25.22
2022-08-14T05:36:01.379Z,25.56
2022-08-14T05:38:37.105Z,24.92
2022-08-14T05:41:18.475Z,24.27
2022-08-14T05:43:48.078Z,23.80
2022-08-14T05:46:23.025Z,23.50
2022-08-14T05:48:57.485Z,23.63
2022-08-14T05:51:28.587Z,24.43
2022-08-14T05:54:11.327Z,25.13
2022-08-14T05:56:41.008Z,25.34
2022-08-14T05:59:08.784Z,24.78
2022-08-14T06:01:36.881Z,24.30
2022-08-14T06:04:05.255Z,23.96
2022-08-14T06:06:38.145Z,23.70
2022-08-14T06:09:09.707Z,23.86
2022-08-14T06:11:38.269Z,24.95
2022-08-14T06:14:12.462Z,25.48
2022-08-14T06:16:49.688Z,24.98
2022-08-14T06:19:23.062Z,24.47
2022-08-14T06:21:58.129Z,24.14
2022-08-14T06:24:30.634Z,23.87
2022-08-14T06:27:06.080Z,23.66
2022-08-14T06:29:38.565Z,23.77
2022-08-14T06:32:36.923Z,24.65
2022-08-14T06:35:09.852Z,25.69
2022-08-14T06:37:59.339Z,25.87
2022-08-14T06:40:34.404Z,25.21
2022-08-14T06:43:08.324Z,24.67
2022-08-14T06:45:38.761Z,24.30
2022-08-14T06:48:23.820Z,24.02
2022-08-14T06:50:57.988Z,23.78
2022-08-14T06:53:27.797Z,23.85
2022-08-14T06:59:20.216Z,25.74
2022-08-14T07:02:25.482Z,25.64
2022-08-14T07:05:23.579Z,24.96
2022-08-14T07:07:52.086Z,24.44
2022-08-14T07:10:22.371Z,24.15
2022-08-14T07:13:03.671Z,23.91
2022-08-14T07:15:39.786Z,23.73
2022-08-14T07:18:10.689Z,23.81
2022-08-14T07:20:44.448Z,24.71
2022-08-14T07:23:20.875Z,25.86
2022-08-14T07:25:53.121Z,26.35
2022-08-14T07:28:27.972Z,25.76
2022-08-14T07:31:04.985Z,25.22
2022-08-14T07:33:50.574Z,24.86
2022-08-14T07:36:27.358Z,24.59
2022-08-14T07:39:12.429Z,24.42
2022-08-14T07:41:44.467Z,24.29
2022-08-14T07:44:32.739Z,24.19
2022-08-14T07:47:02.386Z,24.11
2022-08-14T07:49:34.301Z,24.07
2022-08-14T07:52:05.448Z,24.05
2022-08-14T07:54:36.620Z,24.06
2022-08-14T07:57:11.794Z,24.09
2022-08-14T07:59:44.727Z,24.14
2022-08-14T08:02:20.332Z,24.21
2022-08-14T08:04:59.196Z,24.29
2022-08-14T08:07:31.216Z,24.39
2022-08-14T08:10:46.826Z,24.48
2022-08-14T08:13:25.663Z,24.71
2022-08-14T08:16:00.402Z,25.01
2022-08-14T08:18:31.129Z,25.24
2022-08-14T08:21:00.252Z,25.36
2022-08-14T08:28:36.036Z,25.51
2022-08-14T08:31:08.224Z,25.58
2022-08-14T08:33:40.250Z,25.67
2022-08-14T08:36:12.701Z,25.79
2022-08-14T08:39:16.953Z,25.91
2022-08-14T08:41:50.475Z,26.02
2022-08-14T08:44:34.713Z,26.15
2022-08-14T08:47:06.768Z,26.28
2022-08-14T08:49:48.698Z,26.41
2022-08-14T08:52:35.606Z,26.59
2022-08-14T08:55:14.179Z,26.78
2022-08-14T08:57:43.243Z,27.06
2022-08-14T09:00:24.979Z,27.36
2022-08-14T09:03:00.111Z,27.72
2022-08-14T09:05:38.097Z,28.05
2022-08-14T09:08:31.780Z,28.38
2022-08-14T09:11:19.347Z,28.75
2022-08-14T09:13:55.030Z,29.12
2022-08-14T09:16:25.998Z,29.51
2022-08-14T09:18:56.125Z,29.92
2022-08-14T09:21:24.964Z,30.29
2022-08-14T09:24:29.441Z,30.60
2022-08-14T09:26:49.135Z,30.90
2022-08-14T09:29:23.171Z,31.14
2022-08-14T09:31:59.209Z,31.37
2022-08-14T09:35:03.947Z,31.56
2022-08-14T09:38:25.861Z,31.69
2022-08-14T09:42:21.890Z,31.73
2022-08-14T09:45:08.950Z,31.66
2022-08-14T09:47:46.744Z,31.52
2022-08-14T09:50:25.742Z,31.35
2022-08-14T09:53:04.535Z,31.20
2022-08-14T09:55:42.372Z,31.04
2022-08-14T09:58:20.038Z,30.88
2022-08-14T10:00:54.477Z,30.70
2022-08-14T10:03:34.624Z,30.55
2022-08-14T10:06:20.447Z,30.40
2022-08-14T10:08:52.013Z,30.26
2022-08-14T10:11:25.053Z,30.21
2022-08-14T10:14:35.240Z,30.28
2022-08-14T10:17:08.598Z,30.44
2022-08-14T10:19:48.914Z,30.61
2022-08-14T10:23:15.008Z,30.82
2022-08-14T10:25:17.947Z,30.95
2022-08-14T10:28:00.674Z,30.99
2022-08-14T10:30:35.220Z,31.04
2022-08-14T10:33:04.220Z,31.09
2022-08-14T10:35:48.156Z,31.11
2022-08-14T10:38:35.448Z,31.13
2022-08-14T10:41:19.559Z,31.11
2022-08-14T10:44:21.028Z,31.09
2022-08-14T10:47:41.512Z,31.04
2022-08-14T10:50:00.630Z,30.87
2022-08-14T10:52:34.783Z,30.69
2022-08-14T10:55:09.986Z,30.49
2022-08-14T10:57:57.247Z,30.37
2022-08-14T11:00:35.720Z,30.24
2022-08-14T11:03:19.804Z,30.08
2022-08-14T11:05:55.658Z,29.99
2022-08-14T11:08:33.171Z,29.97
2022-08-14T11:11:06.036Z,29.88
2022-08-14T11:13:34.840Z,29.84
2022-08-14T11:16:03.489Z,29.78
2022-08-14T11:18:40.508Z,29.73
2022-08-14T11:21:10.498Z,29.62
2022-08-14T11:23:41.175Z,29.56
2022-08-14T11:26:20.482Z,29.49
2022-08-14T11:28:53.741Z,29.42
2022-08-14T11:31:24.396Z,29.41
2022-08-14T11:33:55.601Z,29.38
2022-08-14T11:36:56.934Z,29.42
2022-08-14T11:39:34.239Z,29.44
2022-08-14T11:43:07.845Z,29.57
2022-08-14T11:45:04.661Z,29.74
2022-08-14T11:48:10.856Z,29.96
2022-08-14T11:50:37.678Z,30.17
2022-08-14T11:53:08.733Z,30.33
2022-08-14T11:55:39.753Z,30.56
2022-08-14T11:58:11.765Z,30.77
2022-08-14T12:00:52.551Z,30.82
2022-08-14T12:03:37.451Z,30.78
2022-08-14T12:06:29.377Z,30.68
2022-08-14T12:09:08.768Z,30.60
2022-08-14T12:11:46.981Z,30.54
2022-08-14T12:14:30.091Z,30.54
2022-08-14T12:17:12.846Z,30.55
2022-08-14T12:19:58.660Z,30.49
2022-08-14T12:22:42.358Z,30.39
2022-08-14T12:25:19.527Z,30.34
2022-08-14T12:27:53.901Z,30.24
2022-08-14T12:30:44.657Z,30.11
2022-08-14T12:33:27.142Z,30.00
2022-08-14T12:36:04.564Z,29.83
2022-08-14T12:38:43.768Z,29.70
2022-08-14T12:41:21.758Z,29.63
2022-08-14T12:43:56.808Z,29.62
2022-08-14T12:46:37.785Z,29.68
2022-08-14T12:49:23.227Z,29.75
2022-08-14T12:52:01.380Z,29.82
2022-08-14T12:54:32.332Z,29.85
2022-08-14T12:57:20.366Z,29.92
2022-08-14T12:59:50.664Z,29.98
2022-08-14T13:02:25.340Z,29.99
2022-08-14T13:04:58.761Z,29.99
2022-08-14T13:07:32.090Z,30.02
2022-08-14T13:10:12.907Z,30.02
2022-08-14T13:13:15.692Z,29.98
2022-08-14T13:15:47.794Z,29.99
2022-08-14T13:18:17.215Z,29.97
2022-08-14T13:20:51.198Z,29.94
2022-08-14T13:23:31.898Z,29.89
2022-08-14T13:26:01.213Z,29.83
2022-08-14T13:28:41.197Z,29.77
2022-08-14T13:31:24.324Z,29.75
2022-08-14T13:34:00.445Z,29.75
2022-08-14T13:36:51.677Z,29.71
2022-08-14T13:39:21.104Z,29.70
2022-08-14T13:41:56.019Z,29.70
2022-08-14T13:44:27.226Z,29.68
2022-08-14T13:46:55.765Z,29.67
2022-08-14T13:49:24.342Z,29.65
2022-08-14T13:51:53.802Z,29.67
2022-08-14T13:54:24.441Z,29.69
2022-08-14T13:56:53.575Z,29.68
2022-08-14T13:59:37.099Z,29.67
2022-08-14T14:02:08.387Z,29.62
2022-08-14T14:04:49.524Z,29.56
2022-08-14T14:07:21.839Z,29.49
2022-08-14T14:09:54.164Z,29.44
2022-08-14T14:12:37.899Z,29.41
2022-08-14T14:15:15.263Z,29.39
2022-08-14T14:17:48.047Z,29.38
2022-08-14T14:20:34.315Z,29.36
2022-08-14T14:23:11.525Z,29.33
2022-08-14T14:25:51.235Z,29.31
2022-08-14T14:28:34.452Z,29.28
2022-08-14T14:31:06.784Z,29.24
2022-08-14T14:33:51.643Z,29.17
2022-08-14T14:36:27.822Z,29.11
2022-08-14T14:38:59.934Z,29.03
2022-08-14T14:41:37.995Z,28.95
2022-08-14T14:44:15.619Z,28.88
2022-08-14T14:46:51.117Z,28.80
2022-08-14T14:49:32.041Z,28.74
2022-08-14T14:52:26.684Z,28.69
2022-08-14T14:54:59.361Z,28.65
2022-08-14T14:57:34.875Z,28.61
2022-08-14T15:00:19.296Z,28.55
2022-08-14T15:02:52.157Z,28.53
2022-08-14T15:05:21.868Z,28.49
2022-08-14T15:07:52.768Z,28.46
2022-08-14T15:10:28.160Z,28.46
2022-08-14T15:13:04.159Z,28.46
2022-08-14T15:15:36.881Z,28.44
2022-08-14T15:18:14.945Z,28.45
2022-08-14T15:21:02.586Z,28.42
2022-08-14T15:23:32.524Z,28.41
2022-08-14T15:26:23.892Z,28.40
2022-08-14T15:29:06.084Z,28.39
2022-08-14T15:31:36.870Z,28.41
2022-08-14T15:34:45.885Z,28.42
2022-08-14T15:37:06.074Z,28.45
2022-08-14T15:39:35.742Z,28.45
2022-08-14T15:42:16.266Z,28.45
2022-08-14T15:44:57.768Z,28.45
2022-08-14T15:47:31.780Z,28.43
2022-08-14T15:50:05.042Z,28.43
2022-08-14T15:52:35.218Z,28.43
2022-08-14T15:55:15.501Z,28.41
2022-08-14T15:58:01.951Z,28.37
2022-08-14T16:00:54.296Z,28.35
2022-08-14T16:03:35.114Z,28.35
2022-08-14T16:06:17.787Z,28.36
2022-08-14T16:08:58.625Z,28.38
2022-08-14T16:11:28.758Z,28.39
2022-08-14T16:14:01.909Z,28.37
2022-08-14T16:16:50.548Z,28.36
2022-08-14T16:19:24.892Z,28.35
2022-08-14T16:22:01.268Z,28.32
2022-08-14T16:24:59.919Z,28.30
2022-08-14T16:27:34.126Z,28.26
2022-08-14T16:30:24.622Z,28.21
2022-08-14T16:32:58.757Z,28.15
2022-08-14T16:35:43.386Z,28.08
2022-08-14T16:38:46.339Z,27.98
2022-08-14T16:41:17.518Z,27.95
2022-08-14T16:43:45.895Z,27.92
2022-08-14T16:46:23.537Z,27.90
2022-08-14T16:48:57.004Z,27.89
2022-08-14T16:51:36.437Z,27.89
2022-08-14T16:54:33.968Z,27.88
2022-08-14T16:57:24.681Z,27.89
2022-08-14T16:59:59.975Z,27.87
2022-08-14T17:02:45.022Z,27.84
2022-08-14T17:05:22.814Z,27.79
2022-08-14T17:08:33.396Z,27.76
2022-08-14T17:11:12.599Z,27.72
2022-08-14T17:13:58.337Z,27.69
2022-08-14T17:16:37.656Z,27.64
2022-08-14T17:19:13.847Z,27.59
2022-08-14T17:21:47.121Z,27.54
2022-08-14T17:24:58.068Z,27.49
2022-08-14T17:27:10.316Z,27.42
2022-08-14T17:29:44.955Z,27.34
2022-08-14T17:32:29.984Z,27.27
2022-08-14T17:35:16.979Z,27.18
2022-08-14T17:37:55.949Z,27.11
2022-08-14T17:40:30.475Z,27.07
2022-08-14T17:43:01.879Z,27.04
2022-08-14T17:45:41.292Z,27.00
2022-08-14T17:49:14.262Z,26.95
2022-08-14T17:51:23.997Z,26.90
2022-08-14T17:54:01.503Z,26.87
2022-08-14T17:56:34.041Z,26.83
2022-08-14T17:59:07.448Z,26.78
2022-08-14T18:01:45.756Z,26.74
2022-08-14T18:04:27.855Z,26.70
2022-08-14T18:07:09.257Z,26.67
2022-08-14T18:09:56.985Z,26.64
2022-08-14T18:12:52.715Z,26.60
2022-08-14T18:15:21.271Z,26.55
2022-08-14T18:18:06.918Z,26.52
2022-08-14T18:21:40.369Z,26.47
2022-08-14T18:23:26.893Z,26.42
2022-08-14T18:25:57.433Z,26.38
2022-08-14T18:28:48.366Z,26.33
2022-08-14T18:31:20.056Z,26.27
2022-08-14T18:34:06.789Z,26.22
2022-08-14T18:37:03.672Z,26.17
2022-08-14T18:40:02.018Z,26.11
2022-08-14T18:42:35.164Z,26.05
2022-08-14T18:45:12.517Z,26.01
2022-08-14T18:50:47.573Z,25.90
2022-08-14T18:53:59.564Z,25.82
2022-08-14T18:56:58.466Z,25.77
2022-08-14T18:59:42.446Z,25.69
2022-08-14T19:02:30.608Z,25.60
2022-08-14T19:05:02.348Z,25.50
2022-08-14T19:07:33.861Z,25.42
2022-08-14T19:10:09.637Z,25.34
2022-08-14T19:12:52.594Z,25.25
2022-08-14T19:15:25.776Z,25.50
2022-08-14T19:18:14.839Z,26.65
2022-08-14T19:21:12.941Z,27.26
2022-08-14T19:23:44.207Z,26.76
2022-08-14T19:26:35.743Z,26.37
2022-08-14T19:29:37.845Z,26.07
2022-08-14T19:32:38.863Z,25.85
2022-08-14T19:35:49.964Z,25.68
2022-08-14T19:38:59.391Z,25.51
2022-08-14T19:41:35.269Z,25.37
2022-08-14T19:44:10.230Z,25.25
2022-08-14T19:47:01.208Z,25.14
2022-08-14T19:50:24.990Z,25.03
2022-08-14T19:52:29.883Z,25.32
2022-08-14T19:54:57.613Z,26.37
2022-08-14T19:57:30.707Z,27.19
2022-08-14T20:00:29.166Z,27.61
2022-08-14T20:03:12.032Z,26.98
2022-08-14T20:05:45.949Z,26.46
2022-08-14T20:11:00.562Z,26.13
2022-08-14T20:11:21.002Z,25.86
2022-08-14T20:14:11.070Z,25.64
2022-08-14T20:16:42.233Z,25.45
2022-08-14T20:19:16.717Z,25.28
2022-08-14T20:22:04.257Z,25.14
2022-08-14T20:24:43.675Z,25.41
2022-08-14T20:27:34.074Z,26.64
2022-08-14T20:30:34.945Z,27.44
2022-08-14T20:33:07.384Z,26.81
2022-08-14T20:35:43.740Z,26.25
2022-08-14T20:38:31.635Z,25.88
2022-08-14T20:41:08.619Z,25.58
2022-08-14T20:43:59.516Z,25.36
2022-08-14T20:46:31.266Z,25.55
2022-08-14T20:49:09.065Z,26.59
2022-08-14T20:51:58.613Z,27.53
2022-08-14T20:54:33.815Z,27.93
2022-08-14T20:57:15.386Z,27.21
2022-08-14T20:59:57.245Z,26.56
2022-08-14T21:02:46.206Z,26.11
2022-08-14T21:05:33.278Z,25.75
2022-08-14T21:08:08.041Z,25.46
2022-08-14T21:10:44.425Z,25.50
2022-08-14T21:13:27.602Z,26.39
2022-08-14T21:16:33.276Z,27.38
2022-08-14T21:18:58.232Z,27.67
2022-08-14T21:21:41.559Z,27.01
2022-08-14T21:24:39.213Z,26.36
2022-08-14T21:27:09.314Z,25.88
2022-08-14T21:29:40.610Z,25.54
2022-08-14T21:32:33.949Z,25.47
2022-08-14T21:35:08.280Z,26.20
2022-08-14T21:37:44.783Z,26.96
2022-08-14T21:40:40.719Z,27.28
2022-08-14T21:43:04.979Z,26.61
2022-08-14T21:45:35.646Z,26.06
2022-08-14T21:48:10.662Z,25.63
2022-08-14T21:51:00.634Z,25.48
2022-08-14T21:53:32.456Z,26.08
2022-08-14T21:56:02.231Z,26.55
2022-08-14T21:58:51.987Z,26.92
2022-08-14T22:01:19.699Z,27.04
2022-08-14T22:03:55.483Z,26.45
2022-08-14T22:06:29.136Z,25.87
2022-08-14T22:08:58.213Z,25.43
2022-08-14T22:11:27.302Z,25.27
2022-08-14T22:14:02.023Z,25.71
2022-08-14T22:16:58.735Z,26.24
2022-08-14T22:19:19.757Z,26.65
2022-08-14T22:21:48.430Z,26.91
2022-08-14T22:24:38.215Z,26.91
2022-08-14T22:27:06.903Z,26.23
2022-08-14T22:29:34.843Z,25.68
2022-08-14T22:32:07.118Z,25.27
2022-08-14T22:34:34.373Z,25.09
2022-08-14T22:37:01.582Z,25.47
2022-08-14T22:40:17.536Z,26.43
2022-08-14T22:42:22.754Z,27.44
2022-08-14T22:44:50.700Z,27.32
2022-08-14T22:47:18.896Z,26.55
2022-08-14T22:50:29.331Z,25.92
2022-08-14T22:52:39.696Z,25.41
2022-08-14T22:55:07.979Z,25.06
2022-08-14T22:57:37.390Z,25.06
2022-08-14T23:00:25.361Z,25.75
2022-08-14T23:03:03.327Z,26.26
2022-08-14T23:05:40.169Z,26.51
2022-08-14T23:09:00.325Z,26.76
2022-08-14T23:11:07.604Z,26.61
2022-08-14T23:13:36.797Z,26.01
2022-08-14T23:16:07.913Z,25.46
2022-08-14T23:18:37.709Z,25.05
2022-08-14T23:21:13.774Z,24.95
2022-08-14T23:23:43.463Z,25.58
2022-08-14T23:26:49.846Z,26.00
2022-08-14T23:28:58.679Z,26.15
2022-08-14T23:31:34.700Z,26.22
2022-08-14T23:34:09.156Z,26.26
2022-08-14T23:36:53.304Z,26.42
2022-08-14T23:39:32.269Z,26.92
2022-08-14T23:42:09.827Z,26.39
2022-08-14T23:44:38.974Z,25.71
2022-08-14T23:47:10.805Z,25.24
2022-08-14T23:50:01.149Z,24.99
2022-08-14T23:53:06.562Z,25.03
2022-08-14T23:55:21.659Z,25.13
2022-08-14T23:57:58.255Z,25.43
